Milroy, Minnesota
Current Conditions -  °F | °C
As of 7:13 AM on Thursday 27 Nov 2014 (Local Time) from KTKC Reporting Station
Clear Clear  
Wind Chill: -19°   Ceiling: Unl
Heat Index: -8°   Visibility: 10mi
Dew Point: -13°   Wind: 5mph
Humidity: 80%   Direction: 290°WNW
Pressure: 30.49"   Gusts: NA
Location:  44.42°N, 95.55°W
Report Text: KTKC 271313Z AUTO 29004KT 10SM CLR M22/M25 A3049 RMK AO2 T12221248
Loading
Personal Weather Stations






























Interactive Weather Map New forecast layout! Learn more

10-Day Weather Forecast

Advertisements
Track Severe Weather on mobile